sensor_id;sensor_type;location;lat;lon;timestamp;temperature;humidity
20035;DHT22;10178;48.034;9.800;2022-10-26T00:00:36;14.10;99.90
20035;DHT22;10178;48.034;9.800;2022-10-26T00:03:02;14.10;99.90
20035;DHT22;10178;48.034;9.800;2022-10-26T00:05:27;14.10;99.90
20035;DHT22;10178;48.034;9.800;2022-10-26T00:07:53;14.00;99.90
20035;DHT22;10178;48.034;9.800;2022-10-26T00:10:18;14.10;99.90
20035;DHT22;10178;48.034;9.800;2022-10-26T00:12:48;14.10;99.90
20035;DHT22;10178;48.034;9.800;2022-10-26T00:15:14;14.00;99.90
20035;DHT22;10178;48.034;9.800;2022-10-26T00:17:40;14.00;99.90
20035;DHT22;10178;48.034;9.800;2022-10-26T00:20:06;14.00;99.90
20035;DHT22;10178;48.034;9.800;2022-10-26T00:22:31;14.00;99.90
20035;DHT22;10178;48.034;9.800;2022-10-26T00:24:57;14.00;99.90
20035;DHT22;10178;48.034;9.800;2022-10-26T00:27:22;14.00;99.90
20035;DHT22;10178;48.034;9.800;2022-10-26T00:29:48;14.00;99.90
20035;DHT22;10178;48.034;9.800;2022-10-26T00:32:14;14.00;99.90
20035;DHT22;10178;48.034;9.800;2022-10-26T00:34:39;14.00;99.90
20035;DHT22;10178;48.034;9.800;2022-10-26T00:37:05;14.00;99.90
20035;DHT22;10178;48.034;9.800;2022-10-26T00:39:30;14.00;99.90
20035;DHT22;10178;48.034;9.800;2022-10-26T00:41:56;13.90;99.90
20035;DHT22;10178;48.034;9.800;2022-10-26T00:47:09;14.00;99.90
20035;DHT22;10178;48.034;9.800;2022-10-26T00:49:36;13.90;99.90
20035;DHT22;10178;48.034;9.800;2022-10-26T00:52:01;13.90;99.90
20035;DHT22;10178;48.034;9.800;2022-10-26T00:54:27;13.90;99.90
20035;DHT22;10178;48.034;9.800;2022-10-26T00:56:54;13.90;99.90
20035;DHT22;10178;48.034;9.800;2022-10-26T00:59:20;13.90;99.90
20035;DHT22;10178;48.034;9.800;2022-10-26T01:01:48;13.90;99.90
20035;DHT22;10178;48.034;9.800;2022-10-26T01:04:14;13.80;99.90
20035;DHT22;10178;48.034;9.800;2022-10-26T01:06:41;13.90;99.90
20035;DHT22;10178;48.034;9.800;2022-10-26T01:09:08;13.70;99.90
20035;DHT22;10178;48.034;9.800;2022-10-26T01:11:38;12.30;99.90
20035;DHT22;10178;48.034;9.800;2022-10-26T01:14:24;12.50;99.90
20035;DHT22;10178;48.034;9.800;2022-10-26T01:22:37;13.10;99.90
20035;DHT22;10178;48.034;9.800;2022-10-26T01:25:26;13.40;99.90
20035;DHT22;10178;48.034;9.800;2022-10-26T01:28:00;13.60;99.90
20035;DHT22;10178;48.034;9.800;2022-10-26T01:30:39;13.60;99.90
20035;DHT22;10178;48.034;9.800;2022-10-26T01:33:34;13.70;99.90
20035;DHT22;10178;48.034;9.800;2022-10-26T01:38:53;13.80;99.90
20035;DHT22;10178;48.034;9.800;2022-10-26T01:44:05;13.70;99.90
20035;DHT22;10178;48.034;9.800;2022-10-26T01:46:38;13.70;99.90
20035;DHT22;10178;48.034;9.800;2022-10-26T01:49:08;13.70;99.90
20035;DHT22;10178;48.034;9.800;2022-10-26T01:51:34;13.70;99.90
20035;DHT22;10178;48.034;9.800;2022-10-26T01:54:00;13.70;99.90
20035;DHT22;10178;48.034;9.800;2022-10-26T01:56:28;13.30;99.90
20035;DHT22;10178;48.034;9.800;2022-10-26T02:04:45;12.00;99.90
20035;DHT22;10178;48.034;9.800;2022-10-26T02:21:39;11.00;99.90
20035;DHT22;10178;48.034;9.800;2022-10-26T02:24:07;11.00;99.90
20035;DHT22;10178;48.034;9.800;2022-10-26T02:26:35;11.20;99.90
20035;DHT22;10178;48.034;9.800;2022-10-26T02:29:06;11.80;99.90
20035;DHT22;10178;48.034;9.800;2022-10-26T02:31:33;12.30;99.90
20035;DHT22;10178;48.034;9.800;2022-10-26T02:34:03;12.60;99.90
20035;DHT22;10178;48.034;9.800;2022-10-26T02:36:34;12.90;99.90
20035;DHT22;10178;48.034;9.800;2022-10-26T02:39:02;13.00;99.90
20035;DHT22;10178;48.034;9.800;2022-10-26T02:41:30;13.20;99.90
20035;DHT22;10178;48.034;9.800;2022-10-26T02:44:07;13.20;99.90
20035;DHT22;10178;48.034;9.800;2022-10-26T02:46:34;11.90;99.90
20035;DHT22;10178;48.034;9.800;2022-10-26T02:49:01;11.00;99.90
20035;DHT22;10178;48.034;9.800;2022-10-26T02:51:57;10.70;99.90
20035;DHT22;10178;48.034;9.800;2022-10-26T02:54:50;10.40;99.90
20035;DHT22;10178;48.034;9.800;2022-10-26T02:57:25;10.40;99.90
20035;DHT22;10178;48.034;9.800;2022-10-26T02:59:54;10.30;99.90
20035;DHT22;10178;48.034;9.800;2022-10-26T03:02:21;10.40;99.90
20035;DHT22;10178;48.034;9.800;2022-10-26T03:04:49;10.40;99.90
20035;DHT22;10178;48.034;9.800;2022-10-26T03:07:24;10.60;99.90
20035;DHT22;10178;48.034;9.800;2022-10-26T03:09:50;11.10;99.90
20035;DHT22;10178;48.034;9.800;2022-10-26T03:12:16;11.50;99.90
20035;DHT22;10178;48.034;9.800;2022-10-26T03:14:42;11.60;99.90
20035;DHT22;10178;48.034;9.800;2022-10-26T03:17:07;11.60;99.90
20035;DHT22;10178;48.034;9.800;2022-10-26T03:19:33;11.90;99.90
20035;DHT22;10178;48.034;9.800;2022-10-26T03:21:59;12.30;99.90
20035;DHT22;10178;48.034;9.800;2022-10-26T03:24:24;12.50;99.90
20035;DHT22;10178;48.034;9.800;2022-10-26T03:26:50;12.60;99.90
20035;DHT22;10178;48.034;9.800;2022-10-26T03:29:15;12.50;99.90
20035;DHT22;10178;48.034;9.800;2022-10-26T03:31:41;11.60;99.90
20035;DHT22;10178;48.034;9.800;2022-10-26T03:34:07;11.30;99.90
20035;DHT22;10178;48.034;9.800;2022-10-26T03:36:32;11.10;99.90
20035;DHT22;10178;48.034;9.800;2022-10-26T03:38:58;11.10;99.90
20035;DHT22;10178;48.034;9.800;2022-10-26T03:41:24;11.20;99.90
20035;DHT22;10178;48.034;9.800;2022-10-26T03:43:50;11.50;99.90
20035;DHT22;10178;48.034;9.800;2022-10-26T03:46:16;11.70;99.90
20035;DHT22;10178;48.034;9.800;2022-10-26T03:48:41;11.50;99.90
20035;DHT22;10178;48.034;9.800;2022-10-26T03:51:07;11.40;99.90
20035;DHT22;10178;48.034;9.800;2022-10-26T03:53:33;11.60;99.90
20035;DHT22;10178;48.034;9.800;2022-10-26T03:55:58;11.80;99.90
20035;DHT22;10178;48.034;9.800;2022-10-26T03:58:24;11.90;99.90
20035;DHT22;10178;48.034;9.800;2022-10-26T04:00:50;12.00;99.90
20035;DHT22;10178;48.034;9.800;2022-10-26T04:03:16;12.00;99.90
20035;DHT22;10178;48.034;9.800;2022-10-26T04:05:41;12.20;99.90
20035;DHT22;10178;48.034;9.800;2022-10-26T04:08:07;12.10;99.90
20035;DHT22;10178;48.034;9.800;2022-10-26T04:10:33;11.70;99.90
20035;DHT22;10178;48.034;9.800;2022-10-26T04:12:59;11.40;99.90
20035;DHT22;10178;48.034;9.800;2022-10-26T04:15:26;11.30;99.90
20035;DHT22;10178;48.034;9.800;2022-10-26T04:17:57;11.30;99.90
20035;DHT22;10178;48.034;9.800;2022-10-26T04:20:23;11.50;99.90
20035;DHT22;10178;48.034;9.800;2022-10-26T04:22:56;11.60;99.90
20035;DHT22;10178;48.034;9.800;2022-10-26T04:25:22;11.60;99.90
20035;DHT22;10178;48.034;9.800;2022-10-26T04:27:48;11.70;99.90
20035;DHT22;10178;48.034;9.800;2022-10-26T04:30:13;11.80;99.90
20035;DHT22;10178;48.034;9.800;2022-10-26T04:32:39;12.00;99.90
20035;DHT22;10178;48.034;9.800;2022-10-26T04:35:12;12.30;99.90
20035;DHT22;10178;48.034;9.800;2022-10-26T04:37:42;12.20;99.90
20035;DHT22;10178;48.034;9.800;2022-10-26T04:40:08;12.40;99.90
20035;DHT22;10178;48.034;9.800;2022-10-26T04:42:45;12.50;99.90
20035;DHT22;10178;48.034;9.800;2022-10-26T04:45:12;12.70;99.90
20035;DHT22;10178;48.034;9.800;2022-10-26T04:47:38;12.90;99.90
20035;DHT22;10178;48.034;9.800;2022-10-26T04:50:04;13.10;99.90
20035;DHT22;10178;48.034;9.800;2022-10-26T04:52:30;13.00;99.90
20035;DHT22;10178;48.034;9.800;2022-10-26T04:55:03;12.90;99.90
20035;DHT22;10178;48.034;9.800;2022-10-26T04:57:31;13.00;99.90
20035;DHT22;10178;48.034;9.800;2022-10-26T05:00:09;13.00;99.90
20035;DHT22;10178;48.034;9.800;2022-10-26T05:02:44;13.10;99.90
20035;DHT22;10178;48.034;9.800;2022-10-26T05:05:19;13.10;99.90
20035;DHT22;10178;48.034;9.800;2022-10-26T05:07:53;13.10;99.90
20035;DHT22;10178;48.034;9.800;2022-10-26T05:10:19;13.10;99.90
20035;DHT22;10178;48.034;9.800;2022-10-26T05:15:57;13.10;99.90
20035;DHT22;10178;48.034;9.800;2022-10-26T05:21:26;13.10;99.90
20035;DHT22;10178;48.034;9.800;2022-10-26T05:23:52;13.20;99.90
20035;DHT22;10178;48.034;9.800;2022-10-26T05:26:20;13.20;99.90
20035;DHT22;10178;48.034;9.800;2022-10-26T05:28:46;13.30;99.90
20035;DHT22;10178;48.034;9.800;2022-10-26T05:31:12;13.20;99.90
20035;DHT22;10178;48.034;9.800;2022-10-26T05:33:38;13.10;99.90
20035;DHT22;10178;48.034;9.800;2022-10-26T05:36:04;13.20;99.90
20035;DHT22;10178;48.034;9.800;2022-10-26T05:39:20;13.00;99.90
20035;DHT22;10178;48.034;9.800;2022-10-26T05:41:49;12.70;99.90
20035;DHT22;10178;48.034;9.800;2022-10-26T05:44:15;12.70;99.90
20035;DHT22;10178;48.034;9.800;2022-10-26T05:46:41;12.90;99.90
20035;DHT22;10178;48.034;9.800;2022-10-26T05:49:06;12.90;99.90
20035;DHT22;10178;48.034;9.800;2022-10-26T05:51:32;12.80;99.90
20035;DHT22;10178;48.034;9.800;2022-10-26T05:54:02;12.70;99.90
20035;DHT22;10178;48.034;9.800;2022-10-26T05:56:38;12.70;99.90
20035;DHT22;10178;48.034;9.800;2022-10-26T05:59:11;12.80;99.90
20035;DHT22;10178;48.034;9.800;2022-10-26T06:01:46;12.90;99.90
20035;DHT22;10178;48.034;9.800;2022-10-26T06:07:21;13.10;99.90
20035;DHT22;10178;48.034;9.800;2022-10-26T06:09:48;13.10;99.90
20035;DHT22;10178;48.034;9.800;2022-10-26T06:12:14;13.10;99.90
20035;DHT22;10178;48.034;9.800;2022-10-26T06:14:40;13.10;99.90
20035;DHT22;10178;48.034;9.800;2022-10-26T06:17:35;12.80;99.90
20035;DHT22;10178;48.034;9.800;2022-10-26T06:20:42;12.70;99.90
20035;DHT22;10178;48.034;9.800;2022-10-26T06:31:24;12.90;99.90
20035;DHT22;10178;48.034;9.800;2022-10-26T06:33:58;13.00;99.90
20035;DHT22;10178;48.034;9.800;2022-10-26T06:36:26;13.00;99.90
20035;DHT22;10178;48.034;9.800;2022-10-26T06:39:04;13.10;99.90
20035;DHT22;10178;48.034;9.800;2022-10-26T06:41:32;13.30;99.90
20035;DHT22;10178;48.034;9.800;2022-10-26T06:43:59;13.40;99.90
20035;DHT22;10178;48.034;9.800;2022-10-26T06:46:43;13.50;99.90
20035;DHT22;10178;48.034;9.800;2022-10-26T06:54:52;13.00;99.90
20035;DHT22;10178;48.034;9.800;2022-10-26T06:57:21;13.00;99.90
20035;DHT22;10178;48.034;9.800;2022-10-26T06:59:51;12.70;99.90
20035;DHT22;10178;48.034;9.800;2022-10-26T07:02:18;12.50;99.90
20035;DHT22;10178;48.034;9.800;2022-10-26T07:04:44;12.30;99.90
20035;DHT22;10178;48.034;9.800;2022-10-26T07:07:15;12.30;99.90
20035;DHT22;10178;48.034;9.800;2022-10-26T07:09:42;12.30;99.90
20035;DHT22;10178;48.034;9.800;2022-10-26T07:12:08;12.30;99.90
20035;DHT22;10178;48.034;9.800;2022-10-26T07:14:34;12.30;99.90
20035;DHT22;10178;48.034;9.800;2022-10-26T07:16:59;12.30;99.90
20035;DHT22;10178;48.034;9.800;2022-10-26T07:19:25;12.20;99.90
20035;DHT22;10178;48.034;9.800;2022-10-26T07:21:53;12.20;99.90
20035;DHT22;10178;48.034;9.800;2022-10-26T07:24:21;12.30;99.90
20035;DHT22;10178;48.034;9.800;2022-10-26T07:26:47;12.50;99.90
20035;DHT22;10178;48.034;9.800;2022-10-26T07:29:13;12.60;99.90
20035;DHT22;10178;48.034;9.800;2022-10-26T07:31:40;12.70;99.90
20035;DHT22;10178;48.034;9.800;2022-10-26T07:34:06;12.70;99.90
20035;DHT22;10178;48.034;9.800;2022-10-26T07:36:31;12.80;99.90
20035;DHT22;10178;48.034;9.800;2022-10-26T07:38:58;12.80;99.90
20035;DHT22;10178;48.034;9.800;2022-10-26T07:41:23;12.80;99.90
20035;DHT22;10178;48.034;9.800;2022-10-26T07:43:49;12.90;99.90
20035;DHT22;10178;48.034;9.800;2022-10-26T07:46:15;12.90;99.90
20035;DHT22;10178;48.034;9.800;2022-10-26T07:48:41;12.90;99.90
20035;DHT22;10178;48.034;9.800;2022-10-26T07:51:07;12.80;99.90
20035;DHT22;10178;48.034;9.800;2022-10-26T07:53:33;12.80;99.90
20035;DHT22;10178;48.034;9.800;2022-10-26T07:55:59;12.80;99.90
20035;DHT22;10178;48.034;9.800;2022-10-26T07:58:24;12.90;99.90
20035;DHT22;10178;48.034;9.800;2022-10-26T08:00:52;12.90;99.90
20035;DHT22;10178;48.034;9.800;2022-10-26T08:03:18;12.90;99.90
20035;DHT22;10178;48.034;9.800;2022-10-26T08:05:48;12.90;99.90
20035;DHT22;10178;48.034;9.800;2022-10-26T08:08:19;12.80;99.90
20035;DHT22;10178;48.034;9.800;2022-10-26T08:10:45;12.80;99.90
20035;DHT22;10178;48.034;9.800;2022-10-26T08:13:12;12.80;99.90
20035;DHT22;10178;48.034;9.800;2022-10-26T08:15:38;13.00;99.90
20035;DHT22;10178;48.034;9.800;2022-10-26T08:18:04;13.20;99.90
20035;DHT22;10178;48.034;9.800;2022-10-26T08:20:30;13.20;99.90
20035;DHT22;10178;48.034;9.800;2022-10-26T08:22:57;13.40;99.90
20035;DHT22;10178;48.034;9.800;2022-10-26T08:25:22;13.50;99.90
20035;DHT22;10178;48.034;9.800;2022-10-26T08:27:48;13.60;99.90
20035;DHT22;10178;48.034;9.800;2022-10-26T08:30:14;13.60;99.90
20035;DHT22;10178;48.034;9.800;2022-10-26T08:32:40;13.60;99.90
20035;DHT22;10178;48.034;9.800;2022-10-26T08:35:09;13.70;99.90
20035;DHT22;10178;48.034;9.800;2022-10-26T08:37:35;13.70;99.90
20035;DHT22;10178;48.034;9.800;2022-10-26T08:40:02;13.80;99.90
20035;DHT22;10178;48.034;9.800;2022-10-26T08:42:33;13.90;99.90
20035;DHT22;10178;48.034;9.800;2022-10-26T08:45:22;13.90;99.90
20035;DHT22;10178;48.034;9.800;2022-10-26T08:47:52;13.90;99.90
20035;DHT22;10178;48.034;9.800;2022-10-26T08:50:39;14.00;99.90
20035;DHT22;10178;48.034;9.800;2022-10-26T08:56:25;14.10;99.90
20035;DHT22;10178;48.034;9.800;2022-10-26T08:59:17;14.20;99.90
20035;DHT22;10178;48.034;9.800;2022-10-26T09:01:44;14.30;99.90
20035;DHT22;10178;48.034;9.800;2022-10-26T09:04:11;14.40;99.90
20035;DHT22;10178;48.034;9.800;2022-10-26T09:09:23;14.50;99.90
20035;DHT22;10178;48.034;9.800;2022-10-26T09:12:05;14.60;99.90
20035;DHT22;10178;48.034;9.800;2022-10-26T09:17:22;14.60;99.90
20035;DHT22;10178;48.034;9.800;2022-10-26T09:25:18;14.90;99.90
20035;DHT22;10178;48.034;9.800;2022-10-26T09:27:51;15.00;99.90
20035;DHT22;10178;48.034;9.800;2022-10-26T09:30:20;15.00;99.90
20035;DHT22;10178;48.034;9.800;2022-10-26T09:32:48;15.20;99.90
20035;DHT22;10178;48.034;9.800;2022-10-26T09:35:20;15.40;99.90
20035;DHT22;10178;48.034;9.800;2022-10-26T09:38:02;15.60;99.90
20035;DHT22;10178;48.034;9.800;2022-10-26T09:40:55;15.70;99.90
20035;DHT22;10178;48.034;9.800;2022-10-26T09:43:42;15.90;99.90
20035;DHT22;10178;48.034;9.800;2022-10-26T09:46:17;15.90;99.90
20035;DHT22;10178;48.034;9.800;2022-10-26T09:48:48;15.70;99.90
20035;DHT22;10178;48.034;9.800;2022-10-26T09:51:18;15.90;99.90
20035;DHT22;10178;48.034;9.800;2022-10-26T09:53:45;16.30;99.90
20035;DHT22;10178;48.034;9.800;2022-10-26T09:56:17;16.50;99.90
20035;DHT22;10178;48.034;9.800;2022-10-26T09:58:47;16.50;99.90
20035;DHT22;10178;48.034;9.800;2022-10-26T10:01:35;16.20;99.90
20035;DHT22;10178;48.034;9.800;2022-10-26T10:04:15;16.00;99.90
20035;DHT22;10178;48.034;9.800;2022-10-26T10:06:46;16.10;99.90
20035;DHT22;10178;48.034;9.800;2022-10-26T10:09:22;16.00;99.90
20035;DHT22;10178;48.034;9.800;2022-10-26T10:12:00;16.20;99.90
20035;DHT22;10178;48.034;9.800;2022-10-26T10:14:32;16.40;99.90
20035;DHT22;10178;48.034;9.800;2022-10-26T10:17:06;16.60;99.90
20035;DHT22;10178;48.034;9.800;2022-10-26T10:19:37;16.40;99.90
20035;DHT22;10178;48.034;9.800;2022-10-26T10:22:19;16.70;99.90
20035;DHT22;10178;48.034;9.800;2022-10-26T10:24:55;16.80;99.90
20035;DHT22;10178;48.034;9.800;2022-10-26T10:27:22;17.10;99.90
20035;DHT22;10178;48.034;9.800;2022-10-26T10:29:50;17.10;99.90
20035;DHT22;10178;48.034;9.800;2022-10-26T10:32:19;17.30;99.90
20035;DHT22;10178;48.034;9.800;2022-10-26T10:34:46;17.50;99.90
20035;DHT22;10178;48.034;9.800;2022-10-26T10:37:40;17.60;99.90
20035;DHT22;10178;48.034;9.800;2022-10-26T10:42:41;17.60;99.90
20035;DHT22;10178;48.034;9.800;2022-10-26T10:45:19;17.60;99.90
20035;DHT22;10178;48.034;9.800;2022-10-26T10:48:04;17.60;99.90
20035;DHT22;10178;48.034;9.800;2022-10-26T10:50:56;17.70;99.90
20035;DHT22;10178;48.034;9.800;2022-10-26T10:53:43;17.70;99.90
20035;DHT22;10178;48.034;9.800;2022-10-26T10:56:36;17.60;99.90
20035;DHT22;10178;48.034;9.800;2022-10-26T10:59:33;17.50;99.90
20035;DHT22;10178;48.034;9.800;2022-10-26T11:07:17;17.90;99.90
20035;DHT22;10178;48.034;9.800;2022-10-26T11:09:44;18.00;99.90
20035;DHT22;10178;48.034;9.800;2022-10-26T11:12:17;18.20;99.90
20035;DHT22;10178;48.034;9.800;2022-10-26T11:14:51;18.30;99.90
20035;DHT22;10178;48.034;9.800;2022-10-26T11:20:19;18.00;99.90
20035;DHT22;10178;48.034;9.800;2022-10-26T11:25:34;17.30;99.90
20035;DHT22;10178;48.034;9.800;2022-10-26T11:30:48;17.10;99.90
20035;DHT22;10178;48.034;9.800;2022-10-26T11:33:26;17.00;99.90
20035;DHT22;10178;48.034;9.800;2022-10-26T11:36:06;17.00;99.90
20035;DHT22;10178;48.034;9.800;2022-10-26T11:38:49;17.10;99.90
20035;DHT22;10178;48.034;9.800;2022-10-26T11:41:36;17.10;99.90
20035;DHT22;10178;48.034;9.800;2022-10-26T11:47:31;17.20;99.90
20035;DHT22;10178;48.034;9.800;2022-10-26T11:52:44;17.40;99.90
20035;DHT22;10178;48.034;9.800;2022-10-26T11:55:11;17.60;99.90
20035;DHT22;10178;48.034;9.800;2022-10-26T11:57:37;18.00;99.90
20035;DHT22;10178;48.034;9.800;2022-10-26T12:00:18;18.20;99.90
20035;DHT22;10178;48.034;9.800;2022-10-26T12:03:16;18.20;99.90
20035;DHT22;10178;48.034;9.800;2022-10-26T12:05:48;18.30;99.90
20035;DHT22;10178;48.034;9.800;2022-10-26T12:08:24;18.20;99.90
20035;DHT22;10178;48.034;9.800;2022-10-26T12:11:08;18.00;99.90
20035;DHT22;10178;48.034;9.800;2022-10-26T12:13:46;17.80;99.90
20035;DHT22;10178;48.034;9.800;2022-10-26T12:16:21;17.90;99.90
20035;DHT22;10178;48.034;9.800;2022-10-26T12:19:25;18.00;99.90
20035;DHT22;10178;48.034;9.800;2022-10-26T12:21:53;18.10;99.90
20035;DHT22;10178;48.034;9.800;2022-10-26T12:26:58;17.90;99.90
20035;DHT22;10178;48.034;9.800;2022-10-26T12:32:01;17.80;99.90
20035;DHT22;10178;48.034;9.800;2022-10-26T12:39:38;17.40;99.90
20035;DHT22;10178;48.034;9.800;2022-10-26T12:52:51;17.60;99.90
20035;DHT22;10178;48.034;9.800;2022-10-26T13:08:41;17.90;99.90
20035;DHT22;10178;48.034;9.800;2022-10-26T13:11:15;17.80;99.90
20035;DHT22;10178;48.034;9.800;2022-10-26T13:13:42;17.80;99.90
20035;DHT22;10178;48.034;9.800;2022-10-26T13:16:12;17.90;99.90
20035;DHT22;10178;48.034;9.800;2022-10-26T13:18:42;18.00;99.90
20035;DHT22;10178;48.034;9.800;2022-10-26T13:21:11;18.00;99.90
20035;DHT22;10178;48.034;9.800;2022-10-26T13:26:15;17.80;99.90
20035;DHT22;10178;48.034;9.800;2022-10-26T13:28:48;17.80;99.90
20035;DHT22;10178;48.034;9.800;2022-10-26T13:34:17;17.60;99.90
20035;DHT22;10178;48.034;9.800;2022-10-26T13:39:48;17.70;99.90
20035;DHT22;10178;48.034;9.800;2022-10-26T13:42:18;17.70;99.90
20035;DHT22;10178;48.034;9.800;2022-10-26T13:44:58;17.60;99.90
20035;DHT22;10178;48.034;9.800;2022-10-26T13:50:10;17.60;99.90
20035;DHT22;10178;48.034;9.800;2022-10-26T13:52:40;17.60;99.90
20035;DHT22;10178;48.034;9.800;2022-10-26T13:55:22;17.80;99.90
20035;DHT22;10178;48.034;9.800;2022-10-26T14:01:12;17.70;99.90
20035;DHT22;10178;48.034;9.800;2022-10-26T14:03:40;17.60;99.90
20035;DHT22;10178;48.034;9.800;2022-10-26T14:06:23;17.50;99.90
20035;DHT22;10178;48.034;9.800;2022-10-26T14:08:52;17.40;99.90
20035;DHT22;10178;48.034;9.800;2022-10-26T14:11:22;17.40;99.90
20035;DHT22;10178;48.034;9.800;2022-10-26T14:13:49;17.40;99.90
20035;DHT22;10178;48.034;9.800;2022-10-26T14:16:19;17.60;99.90
20035;DHT22;10178;48.034;9.800;2022-10-26T14:18:47;17.80;99.90
20035;DHT22;10178;48.034;9.800;2022-10-26T14:21:19;17.90;99.90
20035;DHT22;10178;48.034;9.800;2022-10-26T14:23:54;18.10;99.90
20035;DHT22;10178;48.034;9.800;2022-10-26T14:26:26;18.20;99.90
20035;DHT22;10178;48.034;9.800;2022-10-26T14:28:57;18.20;99.90
20035;DHT22;10178;48.034;9.800;2022-10-26T14:31:29;18.20;99.90
20035;DHT22;10178;48.034;9.800;2022-10-26T14:33:56;18.30;99.90
20035;DHT22;10178;48.034;9.800;2022-10-26T14:36:27;18.20;99.90
20035;DHT22;10178;48.034;9.800;2022-10-26T14:38:58;18.10;99.90
20035;DHT22;10178;48.034;9.800;2022-10-26T14:41:25;18.00;99.90
20035;DHT22;10178;48.034;9.800;2022-10-26T14:43:51;18.00;99.90
20035;DHT22;10178;48.034;9.800;2022-10-26T14:46:19;17.90;99.90
20035;DHT22;10178;48.034;9.800;2022-10-26T14:48:56;17.80;99.90
20035;DHT22;10178;48.034;9.800;2022-10-26T14:51:29;17.80;99.90
20035;DHT22;10178;48.034;9.800;2022-10-26T14:53:59;17.60;99.90
20035;DHT22;10178;48.034;9.800;2022-10-26T14:56:39;17.70;99.90
20035;DHT22;10178;48.034;9.800;2022-10-26T15:04:36;17.80;99.90
20035;DHT22;10178;48.034;9.800;2022-10-26T15:09:47;17.80;99.90
20035;DHT22;10178;48.034;9.800;2022-10-26T15:12:32;17.70;99.90
20035;DHT22;10178;48.034;9.800;2022-10-26T15:15:21;17.60;99.90
20035;DHT22;10178;48.034;9.800;2022-10-26T15:17:53;17.60;99.90
20035;DHT22;10178;48.034;9.800;2022-10-26T15:20:21;17.70;99.90
20035;DHT22;10178;48.034;9.800;2022-10-26T15:22:50;17.70;99.90
20035;DHT22;10178;48.034;9.800;2022-10-26T15:25:22;17.60;99.90
20035;DHT22;10178;48.034;9.800;2022-10-26T15:27:49;17.60;99.90
20035;DHT22;10178;48.034;9.800;2022-10-26T15:30:26;17.60;99.90
20035;DHT22;10178;48.034;9.800;2022-10-26T15:32:53;17.60;99.90
20035;DHT22;10178;48.034;9.800;2022-10-26T15:35:30;17.50;99.90
20035;DHT22;10178;48.034;9.800;2022-10-26T15:37:57;17.50;99.90
20035;DHT22;10178;48.034;9.800;2022-10-26T15:40:24;17.50;99.90
20035;DHT22;10178;48.034;9.800;2022-10-26T15:42:52;17.50;99.90
20035;DHT22;10178;48.034;9.800;2022-10-26T15:45:30;17.50;99.90
20035;DHT22;10178;48.034;9.800;2022-10-26T15:47:58;17.40;99.90
20035;DHT22;10178;48.034;9.800;2022-10-26T15:50:28;17.40;99.90
20035;DHT22;10178;48.034;9.800;2022-10-26T15:53:02;17.40;99.90
20035;DHT22;10178;48.034;9.800;2022-10-26T15:55:30;17.20;99.90
20035;DHT22;10178;48.034;9.800;2022-10-26T15:57:56;17.10;99.90
20035;DHT22;10178;48.034;9.800;2022-10-26T16:00:22;17.00;99.90
20035;DHT22;10178;48.034;9.800;2022-10-26T16:02:47;16.90;99.90
20035;DHT22;10178;48.034;9.800;2022-10-26T16:05:14;16.90;99.90
20035;DHT22;10178;48.034;9.800;2022-10-26T16:07:42;16.80;99.90
20035;DHT22;10178;48.034;9.800;2022-10-26T16:10:13;16.70;99.90
20035;DHT22;10178;48.034;9.800;2022-10-26T16:12:39;16.60;99.90
20035;DHT22;10178;48.034;9.800;2022-10-26T16:15:05;16.60;99.90
20035;DHT22;10178;48.034;9.800;2022-10-26T16:17:31;16.50;99.90
20035;DHT22;10178;48.034;9.800;2022-10-26T16:19:57;16.40;99.90
20035;DHT22;10178;48.034;9.800;2022-10-26T16:22:24;16.40;99.90
20035;DHT22;10178;48.034;9.800;2022-10-26T16:24:51;16.40;99.90
20035;DHT22;10178;48.034;9.800;2022-10-26T16:27:16;16.40;99.90
20035;DHT22;10178;48.034;9.800;2022-10-26T16:29:42;16.50;99.90
20035;DHT22;10178;48.034;9.800;2022-10-26T16:32:08;16.70;99.90
20035;DHT22;10178;48.034;9.800;2022-10-26T16:34:33;17.10;99.90
20035;DHT22;10178;48.034;9.800;2022-10-26T16:36:59;17.40;99.90
20035;DHT22;10178;48.034;9.800;2022-10-26T16:39:24;17.60;99.90
20035;DHT22;10178;48.034;9.800;2022-10-26T16:41:50;17.90;99.90
20035;DHT22;10178;48.034;9.800;2022-10-26T16:44:16;18.20;99.90
20035;DHT22;10178;48.034;9.800;2022-10-26T16:46:41;18.30;99.90
20035;DHT22;10178;48.034;9.800;2022-10-26T16:49:07;18.40;99.90
20035;DHT22;10178;48.034;9.800;2022-10-26T16:51:48;18.40;99.90
20035;DHT22;10178;48.034;9.800;2022-10-26T16:54:17;18.50;99.90
20035;DHT22;10178;48.034;9.800;2022-10-26T16:56:43;18.50;99.90
20035;DHT22;10178;48.034;9.800;2022-10-26T16:59:09;18.50;99.90
20035;DHT22;10178;48.034;9.800;2022-10-26T17:01:34;18.60;99.90
20035;DHT22;10178;48.034;9.800;2022-10-26T17:04:00;18.60;99.90
20035;DHT22;10178;48.034;9.800;2022-10-26T17:06:28;18.60;99.90
20035;DHT22;10178;48.034;9.800;2022-10-26T17:08:53;18.60;99.90
20035;DHT22;10178;48.034;9.800;2022-10-26T17:11:20;18.10;99.90
20035;DHT22;10178;48.034;9.800;2022-10-26T17:13:46;17.90;99.90
20035;DHT22;10178;48.034;9.800;2022-10-26T17:16:19;17.60;99.90
20035;DHT22;10178;48.034;9.800;2022-10-26T17:18:46;17.70;99.90
20035;DHT22;10178;48.034;9.800;2022-10-26T17:21:14;17.90;99.90
20035;DHT22;10178;48.034;9.800;2022-10-26T17:23:40;18.10;99.90
20035;DHT22;10178;48.034;9.800;2022-10-26T17:26:08;18.20;99.90
20035;DHT22;10178;48.034;9.800;2022-10-26T17:28:34;18.30;99.90
20035;DHT22;10178;48.034;9.800;2022-10-26T17:31:08;18.30;99.90
20035;DHT22;10178;48.034;9.800;2022-10-26T17:33:35;18.20;99.90
20035;DHT22;10178;48.034;9.800;2022-10-26T17:36:02;18.30;99.90
20035;DHT22;10178;48.034;9.800;2022-10-26T17:38:30;18.20;99.90
20035;DHT22;10178;48.034;9.800;2022-10-26T17:41:00;17.80;99.90
20035;DHT22;10178;48.034;9.800;2022-10-26T17:43:29;17.10;99.90
20035;DHT22;10178;48.034;9.800;2022-10-26T17:46:04;16.40;99.90
20035;DHT22;10178;48.034;9.800;2022-10-26T17:48:31;16.50;99.90
20035;DHT22;10178;48.034;9.800;2022-10-26T17:51:01;16.20;99.90
20035;DHT22;10178;48.034;9.800;2022-10-26T17:53:27;15.80;99.90
20035;DHT22;10178;48.034;9.800;2022-10-26T17:56:04;15.50;99.90
20035;DHT22;10178;48.034;9.800;2022-10-26T17:58:31;15.60;99.90
20035;DHT22;10178;48.034;9.800;2022-10-26T18:01:03;16.10;99.90
20035;DHT22;10178;48.034;9.800;2022-10-26T18:03:29;16.70;99.90
20035;DHT22;10178;48.034;9.800;2022-10-26T18:05:55;17.20;99.90
20035;DHT22;10178;48.034;9.800;2022-10-26T18:08:21;17.50;99.90
20035;DHT22;10178;48.034;9.800;2022-10-26T18:10:50;17.60;99.90
20035;DHT22;10178;48.034;9.800;2022-10-26T18:13:17;17.70;99.90
20035;DHT22;10178;48.034;9.800;2022-10-26T18:15:44;17.70;99.90
20035;DHT22;10178;48.034;9.800;2022-10-26T18:18:10;17.70;99.90
20035;DHT22;10178;48.034;9.800;2022-10-26T18:21:04;17.80;99.90